Time;durP1;ratioP1;P1;durP2;ratioP2;P2;SDS_P1;SDS_P2;PMS_P1;PMS_P2;Temp;Humidity;BMP_temperature;BMP_pressure;BME280_temperature;BME280_humidity;BME280_pressure;Samples;Min_cycle;Max_cycle;Signal;HPM_P1;HPM_P2
2022/05/12 00:00:12;;;;;;;4.37;1.70;;;;;;;;;;512647;28;1241;-85
2022/05/12 00:00:30;;;;;;;3.75;1.55;;;;;;;;;;514447;28;1394;-85
2022/05/12 00:00:45;;;;;;;2.85;1.40;;;;;;;;;;514011;28;841;-85
2022/05/12 00:01:00;;;;;;;3.10;1.40;;;;;;;;;;512929;28;1318;-85
2022/05/12 00:01:16;;;;;;;3.20;1.60;;;;;;;;;;512562;28;1168;-85
2022/05/12 00:01:31;;;;;;;4.00;1.70;;;;;;;;;;512796;28;925;-85
2022/05/12 00:01:47;;;;;;;5.80;1.63;;;;;;;;;;511416;29;1229;-85
2022/05/12 00:02:03;;;;;;;4.60;1.53;;;;;;;;;;511427;29;1269;-85
2022/05/12 00:02:18;;;;;;;3.60;1.60;;;;;;;;;;511932;28;1287;-85
2022/05/12 00:02:34;;;;;;;5.20;1.70;;;;;;;;;;513462;28;865;-85
2022/05/12 00:02:50;;;;;;;5.00;1.70;;;;;;;;;;511978;28;1654;-85
2022/05/12 00:03:06;;;;;;;5.22;1.73;;;;;;;;;;512257;28;1578;-85
2022/05/12 00:03:21;;;;;;;4.68;1.58;;;;;;;;;;513606;28;1664;-85
2022/05/12 00:03:37;;;;;;;3.53;1.60;;;;;;;;;;511716;29;1137;-85
2022/05/12 00:03:52;;;;;;;3.93;1.60;;;;;;;;;;510187;29;821;-85
2022/05/12 00:04:07;;;;;;;3.88;1.40;;;;;;;;;;509768;29;1198;-85
2022/05/12 00:04:23;;;;;;;3.20;1.23;;;;;;;;;;512691;28;1664;-85
2022/05/12 00:04:39;;;;;;;3.13;1.40;;;;;;;;;;513827;28;995;-85
2022/05/12 00:04:55;;;;;;;2.50;1.40;;;;;;;;;;515687;28;1000;-85
2022/05/12 00:05:11;;;;;;;2.17;1.40;;;;;;;;;;514811;28;1605;-85
2022/05/12 00:05:27;;;;;;;2.85;1.30;;;;;;;;;;513778;28;1447;-85
2022/05/12 00:05:43;;;;;;;3.75;1.40;;;;;;;;;;515360;28;1617;-85
2022/05/12 00:05:58;;;;;;;3.83;1.40;;;;;;;;;;513437;28;1525;-85
2022/05/12 00:06:14;;;;;;;3.80;1.45;;;;;;;;;;515600;28;1263;-86
2022/05/12 00:06:29;;;;;;;3.80;1.58;;;;;;;;;;513722;28;1569;-85
2022/05/12 00:06:45;;;;;;;3.27;1.53;;;;;;;;;;515186;28;817;-85
2022/05/12 00:07:00;;;;;;;2.77;1.40;;;;;;;;;;514246;28;1910;-84
2022/05/12 00:07:16;;;;;;;3.45;1.40;;;;;;;;;;517497;28;1241;-85
2022/05/12 00:07:31;;;;;;;5.67;1.53;;;;;;;;;;517739;28;1212;-85
2022/05/12 00:07:47;;;;;;;5.63;1.50;;;;;;;;;;514566;28;1641;-85
2022/05/12 00:08:03;;;;;;;4.20;1.38;;;;;;;;;;516855;28;1409;-85
2022/05/12 00:08:19;;;;;;;3.42;1.20;;;;;;;;;;517247;28;1430;-85
2022/05/12 00:08:35;;;;;;;2.77;1.17;;;;;;;;;;514882;28;2638;-85
2022/05/12 00:08:50;;;;;;;2.90;1.30;;;;;;;;;;514080;28;1250;-85
2022/05/12 00:09:05;;;;;;;3.30;1.40;;;;;;;;;;513261;28;794;-85
2022/05/12 00:09:22;;;;;;;3.50;1.40;;;;;;;;;;513452;28;1520;-85
2022/05/12 00:09:37;;;;;;;6.15;1.60;;;;;;;;;;515652;28;1614;-85
2022/05/12 00:09:53;;;;;;;6.13;1.55;;;;;;;;;;515721;28;1269;-85
2022/05/12 00:10:10;;;;;;;3.80;1.40;;;;;;;;;;513854;28;1298;-85
2022/05/12 00:10:26;;;;;;;4.60;1.52;;;;;;;;;;514259;28;1462;-85
2022/05/12 00:10:42;;;;;;;4.95;1.55;;;;;;;;;;515219;28;1422;-85
2022/05/12 00:10:58;;;;;;;3.88;1.40;;;;;;;;;;515807;28;1405;-85
2022/05/12 00:11:13;;;;;;;4.30;1.20;;;;;;;;;;516800;28;888;-85
2022/05/12 00:11:30;;;;;;;3.43;1.20;;;;;;;;;;514204;28;1459;-85
2022/05/12 00:11:46;;;;;;;4.55;1.40;;;;;;;;;;516423;28;1382;-85
2022/05/12 00:12:02;;;;;;;4.75;1.60;;;;;;;;;;519115;28;1208;-86
2022/05/12 00:12:18;;;;;;;3.50;1.40;;;;;;;;;;519353;28;1142;-85
2022/05/12 00:12:34;;;;;;;4.43;1.33;;;;;;;;;;516819;28;1581;-86
2022/05/12 00:12:51;;;;;;;3.38;1.20;;;;;;;;;;517581;28;1580;-85
2022/05/12 00:13:08;;;;;;;1.65;1.15;;;;;;;;;;514474;28;1400;-85
2022/05/12 00:13:23;;;;;;;2.22;1.23;;;;;;;;;;515613;28;940;-85
2022/05/12 00:13:41;;;;;;;5.50;1.40;;;;;;;;;;514686;28;1452;-85
2022/05/12 00:13:57;;;;;;;5.85;1.42;;;;;;;;;;513990;28;1411;-85
2022/05/12 00:14:12;;;;;;;3.72;1.40;;;;;;;;;;515553;28;1269;-85
2022/05/12 00:14:28;;;;;;;2.70;1.25;;;;;;;;;;515520;28;1511;-85
2022/05/12 00:14:43;;;;;;;2.33;1.30;;;;;;;;;;514471;28;1291;-85
2022/05/12 00:14:59;;;;;;;2.87;1.40;;;;;;;;;;515000;28;833;-85
2022/05/12 00:15:19;;;;;;;2.60;1.30;;;;;;;;;;518051;28;1135;-85
2022/05/12 00:15:36;;;;;;;2.70;1.35;;;;;;;;;;517406;28;971;-85
2022/05/12 00:15:53;;;;;;;3.13;1.40;;;;;;;;;;514038;28;1567;-85
2022/05/12 00:16:08;;;;;;;3.75;1.35;;;;;;;;;;513407;28;1261;-85
2022/05/12 00:16:23;;;;;;;2.95;1.30;;;;;;;;;;516062;28;1270;-85
2022/05/12 00:16:39;;;;;;;2.27;1.30;;;;;;;;;;517296;28;785;-85
2022/05/12 00:16:57;;;;;;;2.60;1.23;;;;;;;;;;516447;28;936;-85
2022/05/12 00:17:12;;;;;;;2.58;1.27;;;;;;;;;;515850;28;959;-85
2022/05/12 00:17:27;;;;;;;2.40;1.20;;;;;;;;;;515865;28;864;-85
2022/05/12 00:17:44;;;;;;;2.60;1.27;;;;;;;;;;516708;28;1269;-85
2022/05/12 00:18:03;;;;;;;3.10;1.30;;;;;;;;;;518268;28;1469;-85
2022/05/12 00:18:19;;;;;;;3.42;1.17;;;;;;;;;;518873;28;1356;-85
2022/05/12 00:18:34;;;;;;;3.93;1.20;;;;;;;;;;516326;28;1230;-85
2022/05/12 00:18:49;;;;;;;3.75;1.20;;;;;;;;;;516213;28;813;-85
2022/05/12 00:19:05;;;;;;;5.07;1.27;;;;;;;;;;516164;28;1172;-85
2022/05/12 00:19:21;;;;;;;6.33;1.47;;;;;;;;;;516256;28;848;-85
2022/05/12 00:19:36;;;;;;;4.78;1.42;;;;;;;;;;516162;28;903;-85
2022/05/12 00:19:52;;;;;;;3.97;1.80;;;;;;;;;;515830;28;1258;-85
2022/05/12 00:20:08;;;;;;;4.50;2.27;;;;;;;;;;514697;28;1239;-85
2022/05/12 00:20:24;;;;;;;3.88;1.83;;;;;;;;;;516182;28;1315;-85
2022/05/12 00:20:41;;;;;;;4.80;1.40;;;;;;;;;;516275;28;884;-85
2022/05/12 00:20:56;;;;;;;4.78;1.55;;;;;;;;;;516864;28;873;-85
2022/05/12 00:21:12;;;;;;;3.88;1.40;;;;;;;;;;518066;28;983;-85
2022/05/12 00:21:27;;;;;;;4.97;1.30;;;;;;;;;;518134;28;900;-85
2022/05/12 00:21:43;;;;;;;3.30;1.27;;;;;;;;;;517995;28;1419;-85
2022/05/12 00:21:59;;;;;;;2.25;1.27;;;;;;;;;;516783;28;1303;-85
2022/05/12 00:22:14;;;;;;;3.53;1.40;;;;;;;;;;520201;28;1124;-86
2022/05/12 00:22:30;;;;;;;3.97;1.30;;;;;;;;;;519657;28;1475;-85
2022/05/12 00:22:45;;;;;;;4.00;1.30;;;;;;;;;;516573;28;904;-85
2022/05/12 00:23:15;;;;;;;5.03;1.20;;;;;;;;;;516080;28;1283;-85
2022/05/12 00:23:31;;;;;;;4.82;1.30;;;;;;;;;;518117;28;1436;-85
2022/05/12 00:23:56;;;;;;;5.73;1.30;;;;;;;;;;518843;28;1151;-85
2022/05/12 00:24:12;;;;;;;4.85;1.20;;;;;;;;;;519352;28;1343;-84
2022/05/12 00:24:27;;;;;;;5.00;1.15;;;;;;;;;;519915;28;872;-85
2022/05/12 00:24:43;;;;;;;4.95;1.20;;;;;;;;;;518763;28;1538;-85
2022/05/12 00:24:58;;;;;;;4.23;1.30;;;;;;;;;;517209;28;1502;-85
2022/05/12 00:25:23;;;;;;;3.47;1.27;;;;;;;;;;514691;28;1502;-85
2022/05/12 00:25:39;;;;;;;3.50;1.20;;;;;;;;;;514883;28;1486;-85
2022/05/12 00:25:55;;;;;;;4.28;1.13;;;;;;;;;;515221;28;1580;-85
2022/05/12 00:26:11;;;;;;;5.32;1.17;;;;;;;;;;515098;28;1545;-85
2022/05/12 00:26:32;;;;;;;4.30;1.20;;;;;;;;;;515703;28;1511;-85
2022/05/12 00:26:47;;;;;;;5.53;1.20;;;;;;;;;;515232;28;1272;-85
2022/05/12 00:27:03;;;;;;;4.70;1.20;;;;;;;;;;515489;28;1906;-85
2022/05/12 00:27:19;;;;;;;3.10;1.20;;;;;;;;;;515984;28;1310;-85
2022/05/12 00:27:34;;;;;;;4.03;1.23;;;;;;;;;;515541;28;1586;-85
2022/05/12 00:27:49;;;;;;;3.97;1.10;;;;;;;;;;515560;28;1173;-85
2022/05/12 00:28:05;;;;;;;3.22;1.05;;;;;;;;;;514476;28;909;-85
2022/05/12 00:28:23;;;;;;;4.50;1.20;;;;;;;;;;512986;28;1510;-85
2022/05/12 00:28:39;;;;;;;5.05;1.17;;;;;;;;;;511739;28;1504;-85
2022/05/12 00:28:57;;;;;;;5.10;1.10;;;;;;;;;;513426;28;1799;-85
2022/05/12 00:29:13;;;;;;;6.30;1.27;;;;;;;;;;513694;28;1524;-85
2022/05/12 00:29:28;;;;;;;4.50;1.33;;;;;;;;;;513788;28;1281;-85
2022/05/12 00:29:44;;;;;;;2.83;1.20;;;;;;;;;;515193;28;1246;-85
2022/05/12 00:29:59;;;;;;;4.30;1.10;;;;;;;;;;515513;28;1814;-85
2022/05/12 00:30:15;;;;;;;4.10;1.10;;;;;;;;;;516684;28;1511;-85
2022/05/12 00:30:31;;;;;;;3.05;1.10;;;;;;;;;;516039;28;1400;-85
2022/05/12 00:30:52;;;;;;;4.20;1.13;;;;;;;;;;516104;28;1633;-85
2022/05/12 00:31:08;;;;;;;4.03;1.10;;;;;;;;;;517190;28;1352;-85
2022/05/12 00:31:24;;;;;;;4.47;1.07;;;;;;;;;;517711;28;1640;-85
2022/05/12 00:31:45;;;;;;;4.35;1.10;;;;;;;;;;515942;28;1347;-85
2022/05/12 00:32:03;;;;;;;3.70;1.10;;;;;;;;;;514151;28;860;-85
2022/05/12 00:32:19;;;;;;;5.10;1.05;;;;;;;;;;514928;28;877;-85
2022/05/12 00:32:34;;;;;;;5.07;1.08;;;;;;;;;;516179;28;1326;-85
2022/05/12 00:32:49;;;;;;;4.40;1.10;;;;;;;;;;514026;28;1252;-85
2022/05/12 00:33:05;;;;;;;4.90;1.20;;;;;;;;;;515524;28;1303;-85
2022/05/12 00:33:22;;;;;;;4.68;1.15;;;;;;;;;;518173;28;1014;-85
2022/05/12 00:33:37;;;;;;;3.65;1.10;;;;;;;;;;517816;28;1439;-85
2022/05/12 00:33:53;;;;;;;3.47;1.10;;;;;;;;;;516085;28;1288;-85
2022/05/12 00:34:10;;;;;;;4.40;1.07;;;;;;;;;;516091;28;1275;-85
2022/05/12 00:34:26;;;;;;;6.13;1.10;;;;;;;;;;515986;28;1336;-85
2022/05/12 00:34:41;;;;;;;5.93;1.10;;;;;;;;;;516692;28;939;-85
2022/05/12 00:34:56;;;;;;;4.10;1.00;;;;;;;;;;517859;28;809;-85
2022/05/12 00:35:13;;;;;;;3.90;1.20;;;;;;;;;;517866;28;935;-85
2022/05/12 00:35:29;;;;;;;4.30;1.23;;;;;;;;;;518045;28;1646;-85
2022/05/12 00:35:45;;;;;;;4.07;1.20;;;;;;;;;;516107;28;1589;-85
2022/05/12 00:36:01;;;;;;;3.50;1.02;;;;;;;;;;517589;28;1233;-85
2022/05/12 00:36:16;;;;;;;3.50;1.10;;;;;;;;;;515880;28;1645;-85
2022/05/12 00:36:32;;;;;;;3.53;1.17;;;;;;;;;;513614;28;1516;-85
2022/05/12 00:36:48;;;;;;;3.60;1.10;;;;;;;;;;514403;28;919;-85
2022/05/12 00:37:03;;;;;;;2.88;1.00;;;;;;;;;;511971;29;1427;-85
2022/05/12 00:37:19;;;;;;;2.35;1.00;;;;;;;;;;512661;28;1044;-85
2022/05/12 00:37:34;;;;;;;4.70;1.20;;;;;;;;;;511886;28;1505;-85
2022/05/12 00:37:50;;;;;;;6.60;1.25;;;;;;;;;;511594;29;1584;-85
2022/05/12 00:38:05;;;;;;;5.43;1.10;;;;;;;;;;511741;29;1239;-85
2022/05/12 00:38:20;;;;;;;7.33;1.17;;;;;;;;;;512482;28;1310;-85
2022/05/12 00:38:36;;;;;;;7.07;1.20;;;;;;;;;;514013;28;1248;-85
2022/05/12 00:38:51;;;;;;;3.30;0.93;;;;;;;;;;514086;28;1294;-85
2022/05/12 00:39:07;;;;;;;3.63;0.90;;;;;;;;;;513567;28;1579;-85
2022/05/12 00:39:22;;;;;;;4.68;1.13;;;;;;;;;;513428;28;1554;-85
2022/05/12 00:39:37;;;;;;;7.00;1.10;;;;;;;;;;514203;28;901;-85
2022/05/12 00:39:53;;;;;;;8.45;1.20;;;;;;;;;;514653;28;1569;-85
2022/05/12 00:40:09;;;;;;;6.50;1.30;;;;;;;;;;515682;28;758;-85
2022/05/12 00:40:25;;;;;;;4.75;1.15;;;;;;;;;;513966;28;1477;-85
2022/05/12 00:40:44;;;;;;;3.97;1.10;;;;;;;;;;513843;28;1176;-85
2022/05/12 00:41:00;;;;;;;4.30;1.00;;;;;;;;;;513599;28;1376;-85
2022/05/12 00:41:15;;;;;;;4.15;1.05;;;;;;;;;;516876;28;911;-85
2022/05/12 00:41:31;;;;;;;4.40;1.10;;;;;;;;;;516688;28;1534;-85
2022/05/12 00:41:46;;;;;;;4.65;1.13;;;;;;;;;;516564;28;1402;-85
2022/05/12 00:42:02;;;;;;;4.00;1.30;;;;;;;;;;514768;28;1235;-85
2022/05/12 00:42:17;;;;;;;3.50;1.15;;;;;;;;;;516630;28;1167;-85
2022/05/12 00:42:32;;;;;;;3.30;1.10;;;;;;;;;;518085;28;1382;-84
2022/05/12 00:42:56;;;;;;;3.27;1.20;;;;;;;;;;517562;28;1542;-85
2022/05/12 00:43:39;;;;;;;3.72;1.10;;;;;;;;;;517540;28;1330;-85
2022/05/12 00:43:59;;;;;;;4.18;1.08;;;;;;;;;;517923;28;982;-84
2022/05/12 00:44:16;;;;;;;4.22;1.20;;;;;;;;;;517312;28;1436;-84
2022/05/12 00:44:31;;;;;;;4.43;1.10;;;;;;;;;;515624;28;1439;-85
2022/05/12 00:44:47;;;;;;;3.70;1.20;;;;;;;;;;515022;28;1755;-85
2022/05/12 00:45:03;;;;;;;3.50;1.25;;;;;;;;;;515128;28;1574;-84
2022/05/12 00:45:18;;;;;;;4.20;1.23;;;;;;;;;;515519;28;1549;-85
2022/05/12 00:45:35;;;;;;;5.20;1.20;;;;;;;;;;515886;28;1369;-84
2022/05/12 00:45:50;;;;;;;4.47;1.20;;;;;;;;;;515421;28;1470;-84
2022/05/12 00:46:12;;;;;;;3.53;1.30;;;;;;;;;;516311;28;1556;-84
2022/05/12 00:46:35;;;;;;;5.55;1.40;;;;;;;;;;516640;28;1520;-85
2022/05/12 00:46:52;;;;;;;4.75;1.25;;;;;;;;;;517457;28;1527;-84
2022/05/12 00:47:08;;;;;;;5.20;1.30;;;;;;;;;;517551;28;1906;-84
2022/05/12 00:47:23;;;;;;;6.20;1.48;;;;;;;;;;516681;28;951;-85
2022/05/12 00:47:38;;;;;;;6.93;1.60;;;;;;;;;;515419;28;1443;-84
2022/05/12 00:47:55;;;;;;;8.40;1.60;;;;;;;;;;515847;28;892;-84
2022/05/12 00:48:10;;;;;;;9.93;1.50;;;;;;;;;;514008;28;1407;-84
2022/05/12 00:48:25;;;;;;;6.70;1.37;;;;;;;;;;513457;28;1307;-85
2022/05/12 00:48:42;;;;;;;5.30;1.30;;;;;;;;;;514997;28;1571;-84
2022/05/12 00:49:29;;;;;;;5.93;1.50;;;;;;;;;;517847;28;1398;-84
2022/05/12 00:49:47;;;;;;;5.82;1.48;;;;;;;;;;511051;28;1369;-84
2022/05/12 00:50:03;;;;;;;6.10;1.50;;;;;;;;;;518085;28;1367;-85
2022/05/12 00:50:23;;;;;;;6.60;1.42;;;;;;;;;;516773;28;1534;-85
2022/05/12 00:50:43;;;;;;;7.45;1.25;;;;;;;;;;516596;28;1471;-85
2022/05/12 00:51:00;;;;;;;6.38;1.40;;;;;;;;;;517492;28;1476;-85
2022/05/12 00:51:20;;;;;;;5.57;1.50;;;;;;;;;;518072;28;1014;-85
2022/05/12 00:51:43;;;;;;;6.40;1.65;;;;;;;;;;518327;28;1609;-84
2022/05/12 00:52:06;;;;;;;6.55;1.55;;;;;;;;;;518885;28;898;-84
2022/05/12 00:52:26;;;;;;;5.78;1.30;;;;;;;;;;519129;28;1522;-84
2022/05/12 00:52:43;;;;;;;7.25;1.38;;;;;;;;;;516004;28;1342;-84
2022/05/12 00:53:00;;;;;;;6.28;1.48;;;;;;;;;;516051;28;1397;-84
2022/05/12 00:53:16;;;;;;;6.47;1.20;;;;;;;;;;516882;28;1528;-84
2022/05/12 00:53:34;;;;;;;6.50;1.23;;;;;;;;;;515854;28;1475;-84
2022/05/12 00:53:53;;;;;;;7.88;1.45;;;;;;;;;;514060;28;924;-84
2022/05/12 00:54:19;;;;;;;10.52;1.40;;;;;;;;;;515076;28;1031;-85
2022/05/12 00:55:03;;;;;;;5.25;1.40;;;;;;;;;;515103;28;1504;-84
2022/05/12 00:55:27;;;;;;;7.95;1.40;;;;;;;;;;508744;29;1606;-84
2022/05/12 00:55:44;;;;;;;5.32;1.25;;;;;;;;;;520565;28;1871;-84
2022/05/12 00:56:00;;;;;;;5.68;1.30;;;;;;;;;;520557;28;1569;-83
2022/05/12 00:56:20;;;;;;;6.05;1.30;;;;;;;;;;521307;28;1473;-85
2022/05/12 00:56:36;;;;;;;6.03;1.35;;;;;;;;;;518740;28;1458;-84
2022/05/12 00:56:52;;;;;;;7.78;1.55;;;;;;;;;;517891;28;1229;-85
2022/05/12 00:57:10;;;;;;;7.47;1.55;;;;;;;;;;516734;28;1495;-85
2022/05/12 00:57:48;;;;;;;6.57;1.63;;;;;;;;;;514804;28;1336;-85
2022/05/12 00:58:07;;;;;;;4.30;1.40;;;;;;;;;;514685;28;1477;-85
2022/05/12 00:58:23;;;;;;;7.22;1.42;;;;;;;;;;515749;28;1641;-85
2022/05/12 00:58:38;;;;;;;9.75;1.30;;;;;;;;;;514684;28;1523;-85
2022/05/12 00:59:00;;;;;;;9.30;1.40;;;;;;;;;;515236;28;1681;-85
2022/05/12 00:59:34;;;;;;;6.38;1.40;;;;;;;;;;514099;28;1547;-85
2022/05/12 00:59:50;;;;;;;5.53;1.35;;;;;;;;;;515359;28;924;-85
2022/05/12 01:00:08;;;;;;;5.78;1.30;;;;;;;;;;515916;28;1110;-85
2022/05/12 01:00:24;;;;;;;7.18;1.33;;;;;;;;;;515445;28;1468;-84
2022/05/12 01:00:40;;;;;;;6.30;1.50;;;;;;;;;;517683;28;1390;-85
2022/05/12 01:00:56;;;;;;;5.63;1.50;;;;;;;;;;518075;28;1467;-84
2022/05/12 01:01:11;;;;;;;6.28;1.40;;;;;;;;;;517438;28;1519;-85
2022/05/12 01:01:27;;;;;;;5.93;1.40;;;;;;;;;;517735;28;1220;-85
2022/05/12 01:01:42;;;;;;;6.50;1.40;;;;;;;;;;517532;28;1582;-85
2022/05/12 01:02:00;;;;;;;6.20;1.40;;;;;;;;;;517253;28;1467;-84
2022/05/12 01:02:18;;;;;;;5.97;1.30;;;;;;;;;;516761;28;1533;-85
2022/05/12 01:02:35;;;;;;;7.53;1.30;;;;;;;;;;516389;28;1534;-85
2022/05/12 01:02:55;;;;;;;5.75;1.38;;;;;;;;;;515678;28;1488;-85
2022/05/12 01:03:17;;;;;;;6.85;1.45;;;;;;;;;;517017;28;1078;-84
2022/05/12 01:03:33;;;;;;;7.68;1.50;;;;;;;;;;520014;28;1239;-85
2022/05/12 01:03:49;;;;;;;7.68;1.55;;;;;;;;;;518043;28;1212;-85
2022/05/12 01:04:05;;;;;;;7.05;1.70;;;;;;;;;;516113;28;1324;-85
2022/05/12 01:04:22;;;;;;;7.28;1.65;;;;;;;;;;516634;28;1262;-85
2022/05/12 01:04:41;;;;;;;6.65;1.50;;;;;;;;;;515993;28;1622;-85
2022/05/12 01:04:57;;;;;;;7.45;1.48;;;;;;;;;;515895;28;1403;-84
2022/05/12 01:05:14;;;;;;;7.82;1.60;;;;;;;;;;513136;28;1548;-84
2022/05/12 01:05:30;;;;;;;7.53;1.55;;;;;;;;;;512753;28;1771;-84
2022/05/12 01:05:46;;;;;;;7.40;1.40;;;;;;;;;;515391;28;1448;-85
2022/05/12 01:06:03;;;;;;;6.80;1.40;;;;;;;;;;515778;28;1324;-84
2022/05/12 01:06:19;;;;;;;6.07;1.60;;;;;;;;;;515344;28;1730;-85
2022/05/12 01:06:34;;;;;;;6.45;1.45;;;;;;;;;;516619;28;1435;-85
2022/05/12 01:06:51;;;;;;;7.30;1.43;;;;;;;;;;516935;28;901;-84
2022/05/12 01:07:07;;;;;;;6.63;1.85;;;;;;;;;;514758;28;1903;-84
2022/05/12 01:07:23;;;;;;;4.50;1.80;;;;;;;;;;513668;28;1634;-84
2022/05/12 01:07:39;;;;;;;4.72;1.33;;;;;;;;;;513673;28;1536;-85
2022/05/12 01:07:55;;;;;;;5.78;1.20;;;;;;;;;;516834;28;908;-85
2022/05/12 01:08:13;;;;;;;4.95;1.40;;;;;;;;;;515164;28;1385;-85
2022/05/12 01:08:29;;;;;;;5.15;1.55;;;;;;;;;;513626;28;1681;-84
2022/05/12 01:08:45;;;;;;;4.85;1.40;;;;;;;;;;517124;28;1276;-84
2022/05/12 01:09:02;;;;;;;5.55;1.30;;;;;;;;;;516394;28;1083;-85
2022/05/12 01:09:20;;;;;;;5.80;1.50;;;;;;;;;;517263;28;1585;-84
2022/05/12 01:09:36;;;;;;;5.97;1.40;;;;;;;;;;516678;28;1566;-84
2022/05/12 01:09:52;;;;;;;6.30;1.50;;;;;;;;;;515604;28;1655;-84
2022/05/12 01:10:09;;;;;;;5.75;1.40;;;;;;;;;;517191;28;1007;-84
2022/05/12 01:10:26;;;;;;;6.63;1.35;;;;;;;;;;518012;28;1538;-85
2022/05/12 01:10:44;;;;;;;7.47;1.60;;;;;;;;;;519487;28;1397;-84
2022/05/12 01:11:06;;;;;;;5.93;1.60;;;;;;;;;;519604;28;1432;-85
2022/05/12 01:11:22;;;;;;;6.22;1.50;;;;;;;;;;520105;28;879;-85
2022/05/12 01:11:38;;;;;;;7.13;1.40;;;;;;;;;;519975;28;1250;-85
2022/05/12 01:11:55;;;;;;;6.70;1.48;;;;;;;;;;520005;28;1176;-84
2022/05/12 01:12:11;;;;;;;7.88;1.50;;;;;;;;;;519979;28;990;-85
2022/05/12 01:12:26;;;;;;;7.57;1.52;;;;;;;;;;519924;28;1274;-85
2022/05/12 01:12:45;;;;;;;6.07;1.60;;;;;;;;;;517931;28;1129;-84
2022/05/12 01:13:01;;;;;;;5.40;1.40;;;;;;;;;;517580;28;1558;-85
2022/05/12 01:13:18;;;;;;;8.45;1.52;;;;;;;;;;517528;28;1474;-84
2022/05/12 01:13:34;;;;;;;8.32;1.70;;;;;;;;;;518396;28;1276;-85
2022/05/12 01:13:54;;;;;;;5.15;1.50;;;;;;;;;;514981;28;1200;-85
2022/05/12 01:14:11;;;;;;;5.50;1.35;;;;;;;;;;515850;28;1198;-84
2022/05/12 01:14:26;;;;;;;8.48;1.50;;;;;;;;;;515935;28;875;-85
2022/05/12 01:14:42;;;;;;;7.87;1.60;;;;;;;;;;516042;28;1440;-85
2022/05/12 01:14:57;;;;;;;4.82;1.40;;;;;;;;;;517137;28;1781;-85
2022/05/12 01:15:13;;;;;;;4.70;1.37;;;;;;;;;;514788;28;1408;-84
2022/05/12 01:15:28;;;;;;;5.10;1.60;;;;;;;;;;514603;28;920;-85
2022/05/12 01:15:59;;;;;;;7.17;1.70;;;;;;;;;;513783;28;1539;-85
2022/05/12 01:16:33;;;;;;;8.90;1.52;;;;;;;;;;516282;28;1562;-85
2022/05/12 01:16:53;;;;;;;5.55;1.33;;;;;;;;;;517551;28;892;-85
2022/05/12 01:17:09;;;;;;;4.95;1.33;;;;;;;;;;517951;28;1471;-85
2022/05/12 01:17:24;;;;;;;4.83;1.13;;;;;;;;;;518662;28;1441;-84
2022/05/12 01:17:40;;;;;;;6.80;1.23;;;;;;;;;;519004;28;1165;-85
2022/05/12 01:18:07;;;;;;;7.68;1.50;;;;;;;;;;518205;28;1460;-85
2022/05/12 01:18:23;;;;;;;5.65;1.55;;;;;;;;;;517278;28;1590;-84
2022/05/12 01:18:39;;;;;;;5.88;1.50;;;;;;;;;;514795;28;1563;-84
2022/05/12 01:18:55;;;;;;;7.55;1.30;;;;;;;;;;513393;28;1270;-84
2022/05/12 01:19:15;;;;;;;6.83;1.40;;;;;;;;;;515269;28;1419;-85
2022/05/12 01:19:35;;;;;;;5.30;1.60;;;;;;;;;;513396;28;1262;-85
2022/05/12 01:19:52;;;;;;;4.40;1.50;;;;;;;;;;514305;28;1818;-84
2022/05/12 01:20:08;;;;;;;4.30;1.60;;;;;;;;;;515322;28;1587;-84
2022/05/12 01:20:24;;;;;;;5.75;1.77;;;;;;;;;;517503;28;1522;-85
2022/05/12 01:20:39;;;;;;;6.47;1.70;;;;;;;;;;517360;28;1586;-85
2022/05/12 01:20:55;;;;;;;6.87;1.50;;;;;;;;;;516948;28;1658;-85
2022/05/12 01:21:12;;;;;;;6.53;1.60;;;;;;;;;;516776;28;1651;-85
2022/05/12 01:21:27;;;;;;;6.32;1.50;;;;;;;;;;518902;28;864;-85
2022/05/12 01:21:44;;;;;;;6.27;1.40;;;;;;;;;;518070;28;1265;-84
2022/05/12 01:22:01;;;;;;;5.55;1.50;;;;;;;;;;519834;28;1004;-84
2022/05/12 01:22:47;;;;;;;4.50;1.60;;;;;;;;;;518224;28;935;-84
2022/05/12 01:23:17;;;;;;;5.10;1.55;;;;;;;;;;517574;28;1433;-84
2022/05/12 01:23:36;;;;;;;6.35;1.40;;;;;;;;;;516376;28;904;-84
2022/05/12 01:23:52;;;;;;;7.05;1.52;;;;;;;;;;516069;28;1370;-85
2022/05/12 01:24:07;;;;;;;4.55;1.58;;;;;;;;;;513988;28;1290;-85
2022/05/12 01:24:29;;;;;;;5.80;1.50;;;;;;;;;;515378;28;1479;-85
2022/05/12 01:24:45;;;;;;;5.85;1.58;;;;;;;;;;515555;28;841;-85
2022/05/12 01:25:00;;;;;;;6.97;1.50;;;;;;;;;;515323;28;1030;-84
2022/05/12 01:25:22;;;;;;;7.28;1.50;;;;;;;;;;515865;28;1147;-84
2022/05/12 01:25:37;;;;;;;8.10;1.80;;;;;;;;;;514834;28;1456;-84
2022/05/12 01:26:03;;;;;;;7.77;1.80;;;;;;;;;;517801;28;1288;-85
2022/05/12 01:26:18;;;;;;;5.97;1.70;;;;;;;;;;516225;28;1577;-84
2022/05/12 01:26:34;;;;;;;6.70;1.80;;;;;;;;;;517850;28;903;-84
2022/05/12 01:26:50;;;;;;;6.70;1.70;;;;;;;;;;517337;28;836;-85
2022/05/12 01:27:19;;;;;;;5.57;1.63;;;;;;;;;;515793;28;1919;-84
2022/05/12 01:27:34;;;;;;;5.55;1.45;;;;;;;;;;517535;28;1474;-85
2022/05/12 01:27:49;;;;;;;5.20;1.58;;;;;;;;;;519011;28;1006;-85
2022/05/12 01:28:05;;;;;;;5.70;1.50;;;;;;;;;;517850;28;1267;-85
2022/05/12 01:28:20;;;;;;;6.80;1.40;;;;;;;;;;520916;28;1513;-85
2022/05/12 01:28:36;;;;;;;7.57;1.60;;;;;;;;;;520176;28;1391;-85
2022/05/12 01:28:51;;;;;;;7.55;1.58;;;;;;;;;;520884;28;1620;-84
2022/05/12 01:29:08;;;;;;;7.43;1.60;;;;;;;;;;518197;28;1176;-85
2022/05/12 01:29:23;;;;;;;6.43;1.63;;;;;;;;;;516866;28;1501;-85
2022/05/12 01:29:38;;;;;;;5.25;1.60;;;;;;;;;;514015;28;1233;-85
2022/05/12 01:29:57;;;;;;;4.80;1.57;;;;;;;;;;516100;28;1654;-84
2022/05/12 01:30:16;;;;;;;5.13;1.60;;;;;;;;;;516372;28;873;-85
2022/05/12 01:30:31;;;;;;;5.78;1.45;;;;;;;;;;515429;28;1239;-85
2022/05/12 01:30:47;;;;;;;5.88;1.60;;;;;;;;;;513871;28;903;-85
2022/05/12 01:31:04;;;;;;;7.60;1.80;;;;;;;;;;515059;28;1559;-85
2022/05/12 01:31:21;;;;;;;6.35;1.58;;;;;;;;;;517179;28;1067;-84
2022/05/12 01:31:37;;;;;;;5.55;1.50;;;;;;;;;;515648;28;1327;-85
2022/05/12 01:31:53;;;;;;;6.50;1.50;;;;;;;;;;513913;28;1512;-85
2022/05/12 01:32:08;;;;;;;6.30;1.40;;;;;;;;;;514919;28;1489;-85
2022/05/12 01:32:28;;;;;;;5.25;1.40;;;;;;;;;;515538;28;1442;-85
2022/05/12 01:32:46;;;;;;;6.47;1.60;;;;;;;;;;517106;28;1396;-85
2022/05/12 01:33:01;;;;;;;5.22;1.48;;;;;;;;;;517469;28;1562;-85
2022/05/12 01:33:17;;;;;;;4.97;1.50;;;;;;;;;;514743;28;1330;-85
2022/05/12 01:33:34;;;;;;;6.20;1.75;;;;;;;;;;515908;28;916;-85
2022/05/12 01:33:51;;;;;;;6.35;1.73;;;;;;;;;;514812;28;1539;-85
2022/05/12 01:34:09;;;;;;;6.63;1.73;;;;;;;;;;516617;28;1544;-85
2022/05/12 01:34:25;;;;;;;6.10;1.60;;;;;;;;;;515345;28;1035;-84
2022/05/12 01:34:40;;;;;;;7.23;1.50;;;;;;;;;;515658;28;1467;-84
2022/05/12 01:34:56;;;;;;;6.40;1.63;;;;;;;;;;516650;28;1563;-85
2022/05/12 01:35:15;;;;;;;6.18;1.75;;;;;;;;;;517995;28;1234;-85
2022/05/12 01:35:34;;;;;;;6.78;1.50;;;;;;;;;;518425;28;1451;-85
2022/05/12 01:35:50;;;;;;;7.20;1.50;;;;;;;;;;521767;28;1460;-85
2022/05/12 01:36:05;;;;;;;7.20;1.70;;;;;;;;;;519783;28;1251;-85
2022/05/12 01:36:21;;;;;;;5.93;1.60;;;;;;;;;;519959;28;1145;-85
2022/05/12 01:36:37;;;;;;;5.30;1.50;;;;;;;;;;518842;28;1659;-85
2022/05/12 01:36:53;;;;;;;4.82;1.50;;;;;;;;;;518374;28;1542;-85
2022/05/12 01:37:08;;;;;;;4.43;1.40;;;;;;;;;;518785;28;1630;-85
2022/05/12 01:37:24;;;;;;;5.45;1.60;;;;;;;;;;518434;28;1477;-85
2022/05/12 01:37:41;;;;;;;8.25;1.65;;;;;;;;;;515677;28;1448;-84
2022/05/12 01:37:57;;;;;;;8.50;1.75;;;;;;;;;;515968;28;1536;-85
2022/05/12 01:38:13;;;;;;;7.23;1.80;;;;;;;;;;515029;28;1498;-85
2022/05/12 01:38:29;;;;;;;5.30;1.52;;;;;;;;;;513987;28;1023;-85
2022/05/12 01:38:44;;;;;;;6.23;1.50;;;;;;;;;;514573;28;853;-85
2022/05/12 01:39:00;;;;;;;6.93;1.58;;;;;;;;;;513966;28;1355;-85
2022/05/12 01:39:15;;;;;;;7.73;1.60;;;;;;;;;;512090;28;1449;-84
2022/05/12 01:39:30;;;;;;;7.40;1.67;;;;;;;;;;514028;28;1606;-85
2022/05/12 01:39:46;;;;;;;6.00;1.73;;;;;;;;;;515663;28;864;-85
2022/05/12 01:40:01;;;;;;;6.80;1.70;;;;;;;;;;518110;28;1078;-85
2022/05/12 01:40:23;;;;;;;5.80;1.57;;;;;;;;;;515930;28;1170;-85
2022/05/12 01:40:38;;;;;;;6.22;1.80;;;;;;;;;;512099;28;1521;-84
2022/05/12 01:40:53;;;;;;;5.78;1.90;;;;;;;;;;515031;28;1000;-85
2022/05/12 01:41:09;;;;;;;5.83;1.70;;;;;;;;;;516607;28;1495;-85
2022/05/12 01:41:25;;;;;;;7.87;1.67;;;;;;;;;;514024;28;1233;-85
2022/05/12 01:41:40;;;;;;;7.93;1.70;;;;;;;;;;516006;28;896;-85
2022/05/12 01:41:55;;;;;;;7.40;1.80;;;;;;;;;;516032;28;885;-85
2022/05/12 01:42:12;;;;;;;6.85;1.80;;;;;;;;;;513161;28;1421;-85
2022/05/12 01:42:27;;;;;;;4.38;1.55;;;;;;;;;;515703;28;1035;-85
2022/05/12 01:42:43;;;;;;;5.47;1.48;;;;;;;;;;516138;28;1172;-85
2022/05/12 01:42:59;;;;;;;8.43;1.60;;;;;;;;;;517684;28;1596;-85
2022/05/12 01:43:15;;;;;;;7.60;1.60;;;;;;;;;;517803;28;1710;-85
2022/05/12 01:43:30;;;;;;;8.15;1.65;;;;;;;;;;518687;28;832;-85
2022/05/12 01:43:46;;;;;;;7.83;1.60;;;;;;;;;;518440;28;1613;-85
2022/05/12 01:44:04;;;;;;;5.85;1.60;;;;;;;;;;518443;28;1197;-84
2022/05/12 01:44:19;;;;;;;7.05;1.75;;;;;;;;;;517680;28;1494;-85
2022/05/12 01:44:36;;;;;;;6.80;1.60;;;;;;;;;;518354;28;1235;-85
2022/05/12 01:44:51;;;;;;;6.45;1.45;;;;;;;;;;518133;28;844;-85
2022/05/12 01:45:08;;;;;;;5.35;1.40;;;;;;;;;;517466;28;1582;-84
2022/05/12 01:45:24;;;;;;;4.72;1.40;;;;;;;;;;515760;28;1828;-84
2022/05/12 01:45:40;;;;;;;5.13;1.40;;;;;;;;;;515932;28;1393;-84
2022/05/12 01:45:59;;;;;;;4.35;1.50;;;;;;;;;;513818;28;1645;-84
2022/05/12 01:46:15;;;;;;;5.38;1.70;;;;;;;;;;514949;28;861;-85
2022/05/12 01:46:30;;;;;;;5.40;1.63;;;;;;;;;;515511;28;1586;-85